Date,TemperatureHighF,TemperatureAvgF,TemperatureLowF,DewpointHighF,DewpointAvgF,DewpointLowF,HumidityHigh,HumidityAvg,HumidityLow,PressureMaxIn,PressureMinIn,WindSpeedMaxMPH,WindSpeedAvgMPH,GustSpeedMaxMPH,PrecipitationSumIn
2013-1-1,31,27,21,31,24,16,98,90,80,30.15,30.03,12,2,12,0.00
2013-1-2,23,17,11,17,14,10,96,87,76,30.29,30.12,10,1,10,0.00
2013-1-3,30,20,8,24,16,6,97,86,65,30.28,30.18,18,3,18,0.00
2013-1-4,31,27,23,23,21,18,86,77,66,30.30,30.19,26,6,26,0.00
2013-1-5,36,28,21,28,23,18,91,82,70,30.41,30.17,12,3,13,0.00
2013-1-6,36,34,29,33,30,27,96,86,79,30.29,30.00,17,4,17,0.03
2013-1-7,35,29,25,29,26,23,94,88,75,30.49,30.28,13,2,14,0.00
2013-1-8,41,30,19,32,26,18,99,87,67,30.38,30.27,12,1,12,0.00
2013-1-9,34,33,32,30,29,28,89,86,82,30.31,30.26,4,1,4,0.00
2013-1-10,40,38,38,32,31,30,78,74,68,30.47,30.26,11,2,11,0.00
2013-1-11,57,48,40,54,44,31,100,88,67,30.26,29.90,18,2,18,0.40
2013-1-12,60,56,49,59,54,49,100,96,86,30.05,29.87,14,3,14,0.00
2013-1-13,64,60,40,60,57,39,99,90,81,29.99,29.75,24,6,25,0.18
2013-1-14,40,31,25,39,28,22,98,86,76,30.43,29.98,18,3,19,0.00
2013-1-15,25,24,22,23,22,21,95,92,89,30.38,30.35,3,0,3,0.00
2013-1-16,35,32,31,28,28,26,90,83,70,30.04,29.95,17,4,17,0.00
2013-1-17,35,33,26,30,28,18,88,82,72,30.27,30.04,22,2,23,0.00
2013-1-18,33,26,18,23,18,12,80,70,58,30.53,30.22,30,6,32,0.00
2013-1-19,52,42,32,32,27,23,71,55,38,30.23,29.79,27,8,27,0.00
2013-1-20,47,30,21,35,20,14,76,67,52,30.18,29.75,34,7,34,0.00
2013-1-21,21,17,9,17,12,3,93,80,71,30.16,29.99,23,4,24,0.00
2013-1-22,11,7,5,4,2,-2,84,76,64,30.36,30.16,18,4,18,0.00
2013-1-23,16,10,4,12,5,0,95,81,59,30.38,30.14,13,2,13,0.00
2013-1-24,22,14,10,15,9,4,96,79,49,30.62,30.14,14,2,14,0.00
2013-1-25,19,15,13,17,11,7,94,84,73,30.58,30.08,11,2,11,0.00
2013-1-26,26,22,15,23,18,13,95,87,72,30.50,30.14,13,2,14,0.00
2013-1-27,30,23,10,24,18,9,97,81,66,30.58,30.31,11,1,11,0.00
2013-1-28,48,40,29,48,40,24,100,98,79,30.31,30.00,17,4,17,0.44
2013-1-29,61,55,48,58,53,48,100,93,80,30.07,29.67,20,4,22,0.04
2013-1-30,66,57,36,59,53,34,98,87,73,29.68,29.16,36,8,38,0.28
2013-1-31,36,25,18,34,20,13,98,83,72,29.91,29.30,31,8,31,0.01
2013-2-1,18,14,11,14,8,6,87,78,68,30.38,29.90,25,7,26,0.00
2013-2-2,23,17,9,22,14,6,97,90,78,30.37,30.02,17,3,17,0.00
2013-2-3,22,19,16,21,16,12,96,87,75,30.10,29.92,17,3,18,0.00
2013-2-4,24,20,14,23,18,12,97,91,85,30.11,29.91,11,2,11,0.00
2013-2-5,28,25,23,26,24,22,99,93,80,29.99,29.89,11,1,11,0.00
2013-2-6,31,26,18,27,21,16,98,82,60,30.36,29.99,15,2,15,0.03
2013-2-7,47,33,20,33,26,16,86,74,56,30.33,29.92,11,2,11,0.02
2013-2-8,39,31,24,38,29,22,98,91,83,30.27,29.78,23,5,24,0.18
2013-2-9,34,26,22,24,21,19,93,81,63,30.46,30.26,15,2,19,0.00
2013-2-10,48,36,22,38,24,18,85,65,44,30.36,29.89,18,2,18,0.00
2013-2-11,53,43,34,47,37,26,99,80,63,29.94,29.69,31,8,31,0.00
2013-2-12,40,33,27,30,26,24,93,77,65,30.11,29.93,21,4,21,0.00
2013-2-13,34,28,23,29,26,22,97,90,82,29.95,29.75,11,1,11,0.00
2013-2-14,26,24,23,26,24,22,98,97,96,29.92,29.90,9,1,10,0.00
2013-2-15,36,31,24,30,26,21,96,80,65,30.12,30.02,17,3,17,0.00
2013-2-16,29,24,18,23,18,11,95,79,51,30.11,29.99,16,2,16,0.00
2013-2-17,21,17,11,16,12,8,94,80,61,30.31,30.02,19,4,20,0.00
2013-2-18,47,28,10,34,20,8,95,71,52,30.33,29.83,21,3,22,0.00
2013-2-19,48,32,17,40,28,14,98,85,59,30.01,29.65,36,8,36,0.21
2013-2-20,20,18,16,17,14,10,91,83,75,30.29,30.01,24,6,24,0.00
2013-2-21,24,20,18,17,16,14,93,82,73,30.41,30.26,14,3,15,0.00
2013-2-22,39,31,20,38,28,16,99,90,79,30.35,29.98,18,3,18,0.01
2013-2-23,39,34,26,34,30,24,94,85,71,30.02,29.89,12,2,12,0.00
2013-2-24,32,29,26,27,24,21,93,83,74,30.18,29.91,15,2,17,0.00
2013-2-25,42,33,22,29,26,21,99,77,57,30.26,30.07,12,2,12,0.00
2013-2-26,38,35,30,37,31,24,97,85,66,30.09,29.54,27,5,27,0.82
2013-2-27,40,37,33,40,36,31,99,95,87,29.68,29.52,23,4,23,0.26
2013-2-28,35,32,30,33,31,28,98,95,89,29.90,29.61,16,4,16,0.01
2013-3-1,30,28,25,29,25,22,96,89,81,30.05,29.90,17,4,17,0.00
2013-3-2,28,25,23,24,23,20,95,89,77,30.04,29.99,14,3,14,0.00
2013-3-3,26,23,21,23,20,18,95,88,77,30.08,30.00,17,3,17,0.00
2013-3-4,35,26,16,24,20,15,98,80,62,30.19,30.08,13,2,13,0.00
2013-3-5,42,32,21,27,22,17,90,67,46,30.15,29.66,21,4,24,0.00
2013-3-6,42,36,30,33,31,25,100,84,60,30.19,29.66,21,4,21,0.07
2013-3-7,40,33,30,33,30,28,97,89,73,30.37,30.18,14,2,15,0.00
2013-3-8,39,31,25,31,27,24,96,86,72,30.49,30.36,14,2,14,0.00
2013-3-9,57,39,22,36,30,21,99,72,42,30.47,30.15,10,1,10,0.00
2013-3-10,69,57,45,42,38,32,75,49,37,30.16,29.89,16,3,17,0.01
2013-3-11,61,54,43,50,42,37,97,67,44,29.90,29.59,22,4,27,0.58
2013-3-12,43,36,33,41,32,29,97,86,79,30.01,29.75,16,4,17,0.01
2013-3-13,33,31,30,31,30,29,97,95,92,29.99,29.95,7,2,10,0.00
2013-3-15,47,43,36,38,37,35,97,79,67,29.91,29.87,14,3,15,0.03
2013-3-16,38,34,29,37,34,27,99,97,91,30.03,29.66,11,2,12,0.07
2013-3-17,33,30,28,28,26,22,93,83,70,30.22,30.03,13,2,13,0.00
2013-3-18,47,36,28,47,34,22,100,93,77,30.19,29.65,22,4,22,0.53
2013-3-19,43,32,28,42,26,20,96,76,63,30.00,29.72,27,7,27,0.01
2013-3-20,33,28,22,23,20,18,86,73,55,30.00,29.91,22,4,23,0.00
2013-3-21,28,22,16,24,17,11,88,78,64,29.98,29.91,17,4,17,0.00
2013-3-22,38,30,26,25,22,19,88,72,58,30.05,29.97,16,3,17,0.00
2013-3-23,43,32,21,29,25,19,96,76,52,30.09,30.03,12,2,13,0.00
2013-3-24,36,31,26,31,25,23,88,77,64,30.03,29.51,20,5,21,0.00
2013-3-25,35,33,31,35,32,31,100,99,87,29.84,29.44,19,2,19,0.28
2013-3-26,40,34,31,34,32,30,99,91,74,30.13,29.84,17,3,17,0.06
2013-3-27,42,36,31,32,30,27,98,80,62,30.21,30.11,20,4,21,0.01
2013-3-28,44,37,33,33,29,27,81,72,57,30.30,30.19,15,3,16,0.00
2013-3-29,50,41,32,32,29,24,86,65,44,30.30,30.21,16,2,17,0.00
2013-3-30,56,41,24,31,28,22,95,63,35,30.27,30.00,12,1,14,0.00
2013-3-31,50,46,39,47,37,26,94,74,53,30.01,29.71,16,2,16,0.03
2013-4-1,48,38,31,43,26,17,84,62,42,30.08,29.70,20,5,22,0.00
2013-4-2,39,31,23,21,18,16,76,59,40,30.24,30.08,21,4,22,0.00
2013-4-3,37,31,22,21,18,14,85,59,42,30.46,30.24,20,3,23,0.00
2013-4-4,54,37,21,21,18,14,86,50,21,30.44,29.99,12,1,12,0.00
2013-4-5,50,39,27,35,27,20,92,62,40,30.23,29.96,21,3,21,0.00
2013-4-6,58,42,24,24,20,15,80,44,22,30.30,29.96,13,2,14,0.00
2013-4-7,72,60,49,48,40,20,74,47,27,30.00,29.84,30,6,30,0.00
2013-4-8,71,58,42,56,48,38,88,69,50,30.02,29.85,26,4,26,0.00
2013-4-9,80,67,50,60,55,46,93,66,49,30.08,29.86,22,4,22,0.00
2013-4-10,70,69,67,59,58,57,74,68,64,29.90,29.89,11,4,11,0.00
2013-4-12,57,44,40,56,41,36,97,88,78,29.87,29.49,24,5,26,0.43
2013-4-13,45,41,35,38,36,32,88,80,71,30.06,29.86,22,5,23,0.00
2013-4-14,62,46,29,43,36,28,98,72,47,30.18,29.99,10,2,10,0.00
2013-4-15,68,61,53,55,49,40,76,64,57,30.05,29.95,19,4,19,0.00
2013-4-16,75,61,51,64,56,51,99,83,65,30.18,29.98,23,5,23,0.31
2013-4-17,68,57,47,57,50,46,100,80,55,30.27,30.05,12,3,17,0.01
2013-4-18,84,71,59,66,60,56,95,70,45,30.07,29.65,29,6,30,0.00
2013-4-19,74,55,39,62,47,31,96,74,57,29.86,29.37,27,8,32,0.15
2013-4-20,43,38,33,33,30,26,96,74,54,30.44,29.86,24,5,24,0.03
2013-4-21,50,39,26,32,28,25,98,67,41,30.63,30.44,14,2,14,0.00
2013-4-22,66,52,37,42,35,28,77,55,37,30.48,30.22,12,2,12,0.00
2013-4-23,72,58,43,46,40,30,72,51,36,30.24,29.89,20,3,20,0.00
2013-4-24,63,50,36,56,46,35,100,87,50,30.17,29.71,16,4,22,0.73
2013-4-25,53,41,31,43,36,30,99,83,51,30.38,30.17,23,3,23,0.03
2013-4-26,60,46,30,41,34,28,100,70,34,30.51,30.38,10,1,10,0.00
2013-4-27,73,56,36,44,38,34,97,57,28,30.41,30.10,11,1,12,0.00
2013-4-28,57,54,51,56,50,39,99,86,58,30.12,29.89,12,2,12,0.52
2013-4-29,64,58,54,59,56,54,98,92,80,29.99,29.88,12,2,12,0.12
2013-4-30,77,63,48,60,55,48,100,77,50,30.11,29.99,12,2,12,0.00
2013-5-1,80,67,54,61,55,48,91,67,43,30.25,30.11,15,2,15,0.00
2013-5-2,79,68,55,54,46,40,60,47,34,30.30,30.14,18,2,18,0.00
2013-5-3,78,67,56,49,44,38,62,45,29,30.18,30.05,20,3,20,0.00
2013-5-4,72,62,51,48,43,37,65,50,30,30.15,30.03,17,3,17,0.00
2013-5-5,74,63,52,46,40,32,72,45,25,30.09,29.97,19,3,19,0.00
2013-5-6,74,63,52,56,48,33,76,58,36,30.04,29.94,16,3,16,0.00
2013-5-7,71,63,58,59,56,54,87,77,57,30.00,29.94,14,2,15,0.00
2013-5-8,71,64,59,58,55,52,94,74,54,29.97,29.90,14,2,14,0.01
2013-5-9,79,66,54,58,54,45,100,69,35,29.98,29.91,14,1,14,0.01
2013-5-10,73,64,59,65,60,53,99,88,68,29.95,29.76,36,2,38,0.37
2013-5-11,61,52,46,61,50,44,100,93,82,29.89,29.75,22,2,22,0.06
2013-5-12,50,44,36,44,35,30,95,70,52,30.10,29.88,24,4,24,0.00
2013-5-13,51,42,31,33,30,26,90,62,38,30.19,30.08,19,2,19,0.00
2013-5-14,67,52,34,48,38,28,81,61,44,30.19,29.83,19,1,19,0.00
2013-5-15,85,70,56,65,57,43,85,64,39,29.84,29.71,21,3,26,0.01
2013-5-16,66,64,61,60,58,54,93,80,66,29.77,29.75,8,0,8,0.01
2013-5-17,80,71,58,66,59,48,100,67,46,30.09,30.02,11,1,11,0.00
2013-5-18,85,70,55,63,56,47,80,60,42,30.11,29.99,11,1,11,0.00
2013-5-19,83,72,62,69,65,61,96,78,59,30.04,29.91,13,1,13,0.00
2013-5-20,84,73,64,74,69,63,98,85,68,29.99,29.85,14,2,14,0.00
2013-5-21,86,76,67,72,69,66,99,80,55,29.90,29.76,17,2,18,0.00
2013-5-22,84,75,65,68,65,61,91,72,50,29.82,29.69,22,4,23,0.00
2013-5-23,73,62,43,64,59,41,97,88,69,29.99,29.70,21,4,21,0.09
2013-5-24,45,42,34,42,37,33,97,82,68,30.33,29.99,20,4,20,0.00
2013-5-25,60,46,31,41,36,31,100,72,41,30.40,30.28,17,2,17,0.00
2013-5-26,65,51,34,43,37,33,97,63,34,30.34,30.24,13,2,13,0.00
2013-5-27,62,53,41,52,46,38,98,77,59,30.28,30.06,10,1,10,0.05
2013-5-28,82,68,53,71,62,51,99,83,61,30.08,29.91,20,2,20,0.18
2013-5-29,86,77,68,69,65,61,78,66,50,30.03,29.95,21,4,21,0.00
2013-5-30,89,77,64,70,66,62,95,69,43,30.13,30.02,16,2,16,0.00
2013-5-31,87,75,64,70,66,63,98,76,52,30.06,29.91,20,3,21,0.21
2013-6-1,84,75,66,73,68,65,98,82,62,29.95,29.72,27,4,28,0.01
2013-6-2,76,70,65,69,64,59,100,82,59,29.87,29.71,23,3,23,0.52
2013-6-3,66,59,46,59,50,39,90,74,46,30.09,29.85,13,3,13,0.00
2013-6-4,72,58,40,52,46,40,100,69,46,30.17,30.08,15,2,15,0.00
2013-6-5,81,66,49,61,52,46,92,64,42,30.15,29.90,11,2,12,0.00
2013-6-6,66,63,55,66,62,53,100,96,69,29.91,29.75,8,1,9,0.55
2013-6-7,63,58,55,60,56,55,100,96,88,29.88,29.80,11,2,13,0.01
2013-6-8,59,56,56,57,56,55,99,97,93,29.97,29.88,5,0,5,0.00
2013-6-13,72,67,60,63,59,55,97,76,59,29.83,29.64,21,5,24,0.66
2013-6-14,72,62,55,61,58,53,99,85,65,30.07,29.83,14,2,15,0.00
2013-6-15,79,65,48,61,55,48,100,74,43,30.13,29.97,10,1,10,0.00
2013-6-16,76,68,63,70,65,60,99,91,74,29.99,29.85,16,2,16,0.47
2013-6-17,83,70,63,70,65,59,100,86,46,29.95,29.88,18,1,18,0.21
2013-6-18,77,68,60,68,63,53,99,83,68,29.99,29.84,16,2,18,0.00
2013-6-19,74,64,52,55,52,49,91,66,44,30.16,29.98,16,2,16,0.00
2013-6-20,80,67,49,60,55,49,99,68,42,30.23,30.15,7,1,8,0.00
2013-6-21,86,73,56,66,61,56,99,68,45,30.23,30.12,10,1,10,0.00
2013-6-22,70,65,62,62,61,60,95,88,75,30.13,30.09,0,0,0,0.00
2013-6-23,86,80,75,72,69,64,75,68,58,30.07,29.99,0,0,0,0.00
2013-6-24,88,77,64,72,68,62,94,72,55,30.10,29.95,0,0,0,0.00
2013-6-25,88,76,68,77,71,67,99,84,63,30.01,29.83,20,1,21,0.87
2013-6-26,84,73,66,75,70,66,100,90,71,29.95,29.76,16,2,16,0.83
2013-6-27,80,72,67,72,69,67,100,91,71,29.77,29.60,11,1,11,0.39
2013-6-28,80,69,63,70,66,61,100,89,68,29.61,29.48,13,1,14,0.13
2013-6-29,79,68,61,68,64,61,100,88,62,29.67,29.52,9,1,9,0.75
2013-6-30,79,70,63,70,66,63,100,90,71,29.84,29.66,11,1,11,0.04
2013-7-1,76,68,65,70,66,64,99,94,79,29.94,29.81,12,1,12,0.80
2013-7-2,84,73,65,72,68,65,100,86,65,30.02,29.91,12,1,12,0.00
2013-7-3,86,74,68,74,70,68,100,88,63,30.12,30.01,13,1,13,0.07
2013-7-4,78,73,69,72,70,69,100,91,79,30.17,30.10,12,1,12,0.02
2013-7-5,78,72,68,73,70,68,100,96,80,30.14,30.06,14,1,14,0.22
2013-7-6,87,76,68,76,72,68,100,89,64,30.14,29.98,11,1,11,0.02
2013-7-7,79,73,67,71,68,64,96,85,69,30.08,29.97,11,2,11,0.00
2013-7-8,85,73,62,74,68,62,100,86,63,30.09,30.00,13,1,13,0.13
2013-7-9,87,74,68,79,72,68,100,94,72,30.05,29.91,21,2,21,0.56
2013-7-10,88,72,66,80,71,66,100,96,69,29.96,29.74,21,2,27,1.60
2013-7-11,76,69,60,66,62,58,100,80,56,30.00,29.89,14,2,14,0.00
2013-7-12,60,58,57,58,58,57,100,98,94,30.02,30.00,3,0,3,0.00
2013-7-13,84,80,74,71,70,68,86,70,61,30.18,30.11,11,2,11,0.00
2013-7-14,90,80,68,76,72,67,97,77,59,30.23,30.17,12,1,12,0.00
2013-7-15,93,81,70,77,73,70,99,77,54,30.30,30.20,8,1,9,0.00
2013-7-16,90,80,72,79,75,71,99,87,64,30.28,30.21,10,1,22,0.00
2013-7-17,92,82,72,78,76,72,100,82,59,30.26,30.11,9,1,9,0.01
2013-7-18,92,83,73,79,76,72,100,80,59,30.15,29.97,10,1,10,0.00
2013-7-19,90,80,74,78,74,72,95,82,62,29.99,29.82,16,2,16,0.00
2013-7-20,79,73,69,74,71,68,100,93,80,29.89,29.76,14,2,14,0.37
2013-7-21,84,75,70,74,71,68,100,86,61,29.94,29.87,14,1,14,0.00
2013-7-22,75,70,66,73,68,65,100,94,89,29.93,29.73,9,0,9,0.45
2013-7-23,83,71,64,76,68,64,100,93,72,29.78,29.65,13,1,16,0.07
2013-7-24,70,65,58,67,58,54,97,79,62,30.00,29.74,16,3,16,0.00
2013-7-25,75,64,51,58,55,51,100,75,48,30.09,30.00,13,2,13,0.00
2013-7-26,81,68,52,62,58,52,100,74,48,30.09,29.96,11,1,11,0.00
2013-7-27,70,67,64,68,64,61,98,91,80,29.96,29.79,13,1,14,0.10
2013-7-28,70,64,56,64,56,52,100,79,55,30.01,29.83,17,2,17,0.01
2013-7-29,70,63,53,59,56,52,99,78,55,30.18,30.01,14,2,17,0.00
2013-7-30,78,66,53,63,59,53,100,79,55,30.23,30.13,10,1,10,0.00
2013-7-31,76,67,59,68,64,59,100,91,75,30.14,29.92,6,0,7,0.05
2013-8-1,80,71,63,68,65,61,100,83,54,29.92,29.83,12,2,13,0.05
2013-8-2,74,66,57,66,61,56,100,84,59,29.99,29.89,10,1,13,0.04
2013-8-3,78,69,60,67,62,54,100,80,49,29.98,29.91,14,2,14,0.17
2013-8-4,72,64,56,62,58,55,100,81,59,30.10,29.98,17,2,17,0.03
2013-8-5,74,64,53,60,56,53,100,79,54,30.12,30.00,7,0,8,0.00
2013-8-6,83,70,58,65,61,57,97,74,51,30.01,29.93,11,1,12,0.00
2013-8-7,78,70,62,74,67,61,100,91,80,29.95,29.86,23,1,24,1.23
2013-8-8,84,73,68,77,72,68,100,96,77,29.95,29.87,10,1,11,0.77
2013-8-9,78,70,61,71,66,58,100,87,56,30.01,29.85,10,1,10,0.03
2013-8-10,80,70,59,68,63,59,98,80,63,30.09,30.00,15,1,15,0.00
2013-8-11,82,71,65,69,63,58,91,75,61,30.10,29.99,10,1,10,0.00
2013-8-12,83,72,60,70,66,60,100,80,59,30.05,29.83,12,1,12,0.00
2013-8-13,74,68,52,69,62,51,98,83,63,29.98,29.77,18,3,18,0.00
2013-8-14,53,52,51,52,51,50,98,96,94,30.00,29.98,1,0,1,0.00
2013-8-16,75,71,64,58,56,52,82,59,45,30.17,30.13,11,2,11,0.00
2013-8-17,80,68,55,64,59,55,98,74,49,30.22,30.16,12,1,12,0.00
2013-8-18,74,66,57,67,63,56,97,89,78,30.20,30.10,7,0,7,0.00
2013-8-19,80,70,63,67,64,57,98,83,48,30.13,30.05,10,1,10,0.00
2013-8-20,85,71,58,69,64,58,100,80,51,30.17,30.08,13,0,13,0.00
2013-8-21,86,72,60,70,66,60,100,81,54,30.17,30.03,8,1,9,0.00
2013-8-22,82,72,64,74,69,63,99,91,75,30.07,29.95,13,1,14,0.04
2013-8-23,82,72,64,71,64,56,100,78,50,30.15,29.97,17,2,17,0.06
2013-8-24,81,67,53,62,56,50,99,71,38,30.29,30.15,11,1,11,0.00
2013-8-25,83,69,54,67,61,54,100,76,50,30.33,30.20,11,1,11,0.00
2013-8-26,85,74,61,72,66,59,93,75,55,30.22,29.99,11,2,15,0.00
2013-8-27,80,74,70,74,72,69,100,91,83,30.01,29.88,11,1,11,0.35
2013-8-28,80,76,70,75,73,70,98,92,82,29.92,29.79,14,2,14,0.00
2013-8-29,85,75,68,73,70,67,100,86,58,30.03,29.92,10,1,10,0.00
2013-8-30,87,76,63,74,70,63,100,83,62,29.99,29.79,14,1,14,0.00
2013-8-31,85,77,69,75,72,69,100,84,66,29.81,29.67,15,2,16,0.07
2013-9-1,83,76,71,74,72,70,100,87,69,29.79,29.72,11,1,11,0.00
2013-9-2,81,71,62,73,69,62,99,92,72,29.83,29.72,13,1,14,0.78
2013-9-3,64,61,54,62,58,54,100,91,77,30.04,29.83,13,1,13,0.00
2013-9-4,79,64,50,63,58,50,100,81,50,30.13,30.03,14,1,14,0.01
2013-9-5,72,64,52,62,57,47,97,77,45,30.21,30.05,14,2,14,0.00
2013-9-6,76,60,45,54,50,45,100,74,39,30.27,30.11,9,0,9,0.00
2013-9-7,81,66,49,66,58,49,100,78,50,30.12,29.92,13,1,13,0.00
2013-9-8,75,69,60,70,64,54,99,86,72,30.04,29.89,15,2,15,0.00
2013-9-9,85,68,53,75,65,52,99,89,63,30.06,29.96,16,1,16,0.20
2013-9-10,74,73,72,71,71,70,95,92,91,30.04,29.99,12,2,12,0.00
2013-9-11,74,74,74,71,71,71,91,91,91,30.03,30.03,2,2,12,0.00
2013-9-15,65,64,64,54,54,53,69,67,65,30.14,30.13,6,1,6,0.00
2013-9-20,80,76,71,73,72,68,94,88,77,29.80,29.76,10,1,10,0.00
2013-9-21,71,65,54,68,63,54,100,94,69,29.79,29.61,14,1,15,0.49
2013-9-22,57,54,50,54,50,47,100,87,72,30.04,29.79,17,1,17,0.01
2013-9-23,59,53,44,50,48,44,99,84,66,30.16,30.04,10,1,10,0.00
2013-9-24,69,53,39,52,47,39,100,83,51,30.14,29.98,11,1,11,0.00
2013-9-25,73,58,45,60,52,45,100,85,54,30.00,29.88,11,1,11,0.01
2013-9-26,75,60,46,58,51,46,100,76,41,30.10,29.95,8,1,11,0.00
2013-9-27,72,60,48,57,53,47,100,80,52,30.19,30.09,13,2,13,0.00
2013-9-28,77,63,50,62,56,50,100,81,54,30.23,30.10,10,0,10,0.00
2013-9-29,75,63,53,64,58,52,98,85,64,30.11,29.97,12,1,13,0.00
2013-9-30,65,62,59,62,60,58,99,94,87,30.02,29.96,11,1,11,0.00
2013-10-1,77,65,56,66,61,56,100,87,60,30.07,29.98,10,1,14,0.01
2013-10-2,80,68,58,70,64,57,100,87,63,30.08,30.01,10,1,10,0.00
2013-10-3,80,68,63,72,66,63,100,95,74,30.06,29.98,12,1,14,0.53
2013-10-4,80,69,63,71,67,63,100,95,67,30.06,30.01,12,1,14,0.10
2013-10-5,74,69,64,72,68,64,100,98,88,30.04,29.93,8,0,8,0.43
2013-10-6,80,71,60,71,68,58,100,89,69,29.94,29.68,19,2,19,0.06
2013-10-7,60,53,47,58,49,45,100,86,67,30.14,29.71,26,2,26,0.85
2013-10-8,66,54,42,52,47,42,100,81,49,30.30,30.14,12,1,12,0.00
2013-10-9,70,55,42,51,46,42,100,77,44,30.32,30.22,13,1,13,0.00
2013-10-10,70,53,41,52,46,41,99,79,45,30.23,30.09,6,0,6,0.00
2013-10-11,72,58,44,60,51,44,100,79,42,30.13,30.04,12,1,13,0.00
2013-10-12,56,53,52,54,52,49,99,95,88,30.08,30.06,1,0,1,0.00
2013-10-13,63,60,58,61,59,56,99,97,91,30.27,30.22,9,0,9,0.02
2013-10-14,66,58,50,56,52,46,93,80,64,30.33,30.22,14,2,14,0.00
2013-10-15,66,57,44,62,55,44,100,94,84,30.24,29.95,9,0,9,0.00
2013-10-16,64,60,51,64,60,50,100,98,84,29.95,29.81,14,1,14,0.47
2013-10-17,55,48,42,51,47,42,100,97,82,29.92,29.77,15,1,15,0.21
2013-10-18,61,51,42,49,45,41,100,83,57,30.02,29.91,16,2,17,0.00
2013-10-19,52,46,40,49,44,39,98,93,85,29.95,29.73,17,1,17,0.16
2013-10-20,59,47,37,45,41,36,98,81,55,30.02,29.94,19,3,19,0.00
2013-10-21,64,53,42,50,43,39,92,72,48,30.02,29.85,18,2,18,0.01
2013-10-22,51,43,35,49,36,30,98,75,50,29.98,29.86,17,2,17,0.11
2013-10-23,45,39,34,40,36,32,99,88,63,29.97,29.79,17,1,17,0.02
2013-10-24,45,37,32,36,33,30,96,85,62,30.19,29.95,16,2,16,0.03
2013-10-25,46,38,31,36,33,30,98,83,57,30.37,30.18,14,2,14,0.01
2013-10-26,46,40,33,39,32,28,88,73,55,30.26,29.90,19,4,24,0.00
2013-10-27,52,40,30,38,35,29,100,84,56,30.12,30.02,13,1,13,0.00
2013-10-28,58,43,28,43,36,28,100,80,47,30.34,30.11,9,0,9,0.00
2013-10-29,57,44,32,44,40,32,100,86,59,30.41,30.26,7,0,7,0.01
2013-10-30,65,53,40,56,48,39,97,82,66,30.26,30.05,7,0,8,0.00
2013-10-31,65,60,57,60,59,56,100,94,79,30.06,29.33,30,4,30,0.40
2013-11-1,63,55,49,59,50,45,98,83,67,29.70,29.27,26,4,27,0.36
2013-11-2,49,46,42,47,44,41,99,94,80,30.03,29.67,15,2,15,0.08
2013-11-3,47,40,32,41,35,28,100,84,60,30.48,30.02,11,1,12,0.01
2013-11-4,45,37,29,32,29,25,88,72,56,30.54,30.41,11,1,11,0.00
2013-11-5,60,50,41,45,39,31,79,67,55,30.47,30.28,10,1,10,0.00
2013-11-6,68,56,42,58,49,37,99,78,60,30.29,29.89,24,3,24,0.42
2013-11-7,56,42,39,56,38,30,99,83,63,30.15,29.90,20,3,20,0.21
2013-11-8,43,36,27,35,30,26,97,81,57,30.32,30.12,16,2,16,0.00
2013-11-9,58,44,28,42,34,27,96,68,44,30.29,29.96,26,4,26,0.00
2013-11-10,51,42,30,42,35,28,95,77,63,30.31,29.98,22,4,22,0.00
2013-11-11,47,38,29,39,33,28,99,83,58,30.29,30.05,20,3,20,0.11
2013-11-12,33,29,26,31,26,22,99,90,74,30.54,30.21,18,3,18,0.03
2013-11-13,37,30,25,26,23,20,84,73,59,30.59,30.36,17,4,17,0.02
2013-11-14,42,32,29,24,22,21,76,68,47,30.36,30.17,17,5,17,0.01
2013-11-15,52,45,38,35,28,23,67,52,38,30.20,30.11,19,3,19,0.00
2013-11-16,59,50,38,52,46,35,93,85,68,30.21,29.95,16,2,16,0.00
2013-11-17,61,57,52,59,55,44,99,93,71,29.96,29.44,32,7,32,0.87
2013-11-18,52,44,36,45,37,28,90,76,62,30.12,29.61,30,7,31,0.00
2013-11-19,39,34,26,30,27,23,93,77,63,30.44,30.11,15,2,16,0.00
2013-11-20,47,36,27,26,23,19,93,63,37,30.47,30.34,15,2,15,0.00
2013-11-21,50,41,36,44,34,21,93,78,50,30.42,30.21,5,1,10,0.09
2013-11-22,50,49,47,49,46,43,99,92,78,30.22,30.17,10,2,10,0.03
2013-11-28,26,26,25,22,22,21,87,85,82,30.47,30.39,2,0,3,0.00
2013-11-29,33,25,16,23,20,14,95,82,61,30.69,30.47,7,1,8,0.03
2013-11-30,40,30,0,28,24,19,84,77,60,30.64,30.22,11,2,12,0.05
2013-12-1,40,36,30,32,29,26,85,77,70,30.23,30.01,9,2,10,0.02
2013-12-2,40,36,33,35,33,30,91,87,82,29.94,29.87,8,0,8,0.00
2013-12-3,54,42,34,44,37,31,93,85,67,29.93,29.87,10,1,10,0.00
2013-12-4,58,50,40,50,45,38,92,82,73,29.97,29.80,10,1,11,0.00
2013-12-5,60,52,33,58,47,31,94,84,67,30.10,29.78,13,4,17,0.13
2013-12-6,33,30,26,31,28,24,95,94,91,30.36,30.07,11,2,11,0.03
2013-12-7,26,23,19,25,19,15,94,85,72,30.59,30.36,9,2,10,0.00
2013-12-8,29,25,0,27,20,14,94,82,69,30.52,0.00,15,4,16,0.00
2013-12-9,34,31,25,33,27,20,96,87,77,30.19,29.98,19,5,20,0.00
2013-12-10,26,22,19,20,15,9,91,75,50,30.32,30.07,23,4,23,0.00
2013-12-11,27,20,16,20,14,11,89,78,66,30.46,30.29,17,4,18,0.00
2013-12-12,18,14,7,13,4,-1,88,66,44,30.53,30.31,21,4,21,0.00
2013-12-13,34,24,17,22,14,6,80,66,56,30.32,30.24,14,2,16,0.01
2013-12-14,36,31,27,35,28,21,96,90,76,30.27,29.69,10,2,11,0.26
2013-12-15,35,23,16,34,20,11,96,87,76,30.10,29.69,16,6,22,0.03
2013-12-16,23,19,14,21,13,10,92,77,63,30.23,30.06,11,2,11,0.00
2013-12-17,29,26,22,28,23,19,95,89,76,30.11,29.98,16,3,16,0.00
2013-12-18,29,25,23,23,20,18,89,81,68,30.22,30.08,19,4,20,0.00
2013-12-19,46,38,30,35,28,19,81,66,58,30.11,30.00,19,4,19,0.10
2013-12-20,54,48,43,52,42,30,95,79,56,30.00,29.84,18,4,18,0.14
2013-12-21,64,56,50,60,55,49,98,95,90,29.85,29.48,21,4,22,1.62
2013-12-22,68,56,46,61,50,42,97,82,60,29.96,29.43,31,7,31,0.51
2013-12-23,46,34,27,42,28,20,94,80,69,30.33,29.95,16,4,16,0.03
2013-12-24,27,18,13,22,12,7,92,79,67,30.59,30.29,20,4,20,0.00
2013-12-25,28,20,11,24,14,8,89,76,59,30.57,30.24,14,2,15,0.00
2013-12-26,34,29,26,26,22,16,89,75,56,30.37,30.15,20,4,20,0.00
2013-12-27,43,35,27,31,26,20,77,70,60,30.39,30.25,15,3,17,0.00
2013-12-28,51,41,35,36,31,28,76,67,55,30.25,30.03,19,4,19,0.00
2013-12-29,42,40,30,40,34,26,95,80,52,30.03,29.73,20,2,20,0.15
2013-12-30,30,23,20,28,17,11,93,78,61,30.26,29.92,14,3,15,0.00
2013-12-31,23,20,18,19,16,11,90,82,72,30.36,30.12,24,4,24,0.00
2014-1-1,27,23,20,22,19,16,89,86,82,30.38,30.14,12,2,12,0.00
2014-1-2,22,18,12,19,15,7,92,88,82,30.14,29.83,27,5,27,0.00